KAKH

Gastonia Municipal Airport

Gastonia, North Carolina, USA
METAR KAKH 191854Z AUTO 18007KT 150V230 10SM CLR 21/06 A3021 RMK AO2 SLP230 T02110056
Observed Flight Rules
Oct-19 @ 18:54 UTC (an hour ago) Visual Flight Rules
Wind Visibility Clouds
180° at 7 knots 10 miles
  • Clear skies
Temperatures Readings
Current 21°C / 70°F
Dewpoint 6°C / 43°F
Humidity 38%
Altimeter 30.21" Hg
Pressure 1023 hPa
Elevation 243
METAR KAKH 191854Z AUTO 18007KT 150V230 10SM CLR 21/06 A3021 RMK AO2 SLP230 T02110056
Observed Flight Rules
Oct-19 @ 18:54 UTC
(an hour ago)
VFR
Wind Visibility
180° at 7 knots 10 miles
Clouds
  • Clear skies
Temperature Dewpoint
21°C / 70°F 6°C / 43°F
Humidity Altimeter Pressure
38% 30.21" Hg 1023 hPa